Fontana, California
Current Conditions -  °F | °C
As of 7:53 AM on Thursday 30 Oct 2014 (Local Time) from KONT Reporting Station
Broken Clouds Broken Clouds  
Wind Chill: 62°   Ceiling: 25000
Heat Index: 62°   Visibility: 10mi
Dew Point: 44°   Wind: 0mph
Humidity: 52%   Direction: NA
Pressure: 30"   Gusts: NA
Location:  34.1°N, 117.43°W
Report Text: KONT 301453Z 00000KT 10SM FEW200 BKN250 17/07 A3000 RMK AO2 SLP148 T01670067 53003
Loading
Personal Weather Stations






























Interactive Weather Map New forecast layout! Learn more

10-Day Weather Forecast

Advertisements
Track Severe Weather on mobile